Time;durP1;ratioP1;P1;durP2;ratioP2;P2;SDS_P1;SDS_P2;PMS_P1;PMS_P2;Temp;Humidity;BMP_temperature;BMP_pressure;BME280_temperature;BME280_humidity;BME280_pressure;Samples;Min_cycle;Max_cycle;Signal;HPM_P1;HPM_P2
2023/03/18 00:01:54;;;;;;;20.25;8.68;;;;;;;;;;5094149;28;20024;-49
2023/03/18 00:04:19;;;;;;;16.95;7.38;;;;;;;;;;5094526;28;20020;-49
2023/03/18 00:06:45;;;;;;;22.20;8.45;;;;;;;;;;5095090;28;20103;-49
2023/03/18 00:09:12;;;;;;;16.83;7.18;;;;;;;;;;5094012;28;20023;-49
2023/03/18 00:11:39;;;;;;;24.13;9.77;;;;;;;;;;5092694;28;20024;-49
2023/03/18 00:14:05;;;;;;;19.75;8.40;;;;;;;;;;5092781;28;20016;-49
2023/03/18 00:16:31;;;;;;;20.30;8.35;;;;;;;;;;5093802;28;20020;-49
2023/03/18 00:18:56;;;;;;;16.67;7.20;;;;;;;;;;5092835;28;20024;-49
2023/03/18 00:21:22;;;;;;;19.70;8.30;;;;;;;;;;5093804;28;20020;-50
2023/03/18 00:23:49;;;;;;;21.48;8.98;;;;;;;;;;5093623;28;20020;-50
2023/03/18 00:26:16;;;;;;;18.00;7.93;;;;;;;;;;5092615;28;20108;-51
2023/03/18 00:28:41;;;;;;;17.80;8.93;;;;;;;;;;5093375;28;20021;-50
2023/03/18 00:31:08;;;;;;;21.58;8.55;;;;;;;;;;5094127;28;20036;-51
2023/03/18 00:33:34;;;;;;;18.27;8.82;;;;;;;;;;5093209;28;20417;-48
2023/03/18 00:36:00;;;;;;;15.40;5.93;;;;;;;;;;5093966;28;20046;-51
2023/03/18 00:38:25;;;;;;;19.45;8.60;;;;;;;;;;5094084;28;20457;-50
2023/03/18 00:40:52;;;;;;;26.48;9.93;;;;;;;;;;5092685;28;20048;-51
2023/03/18 00:43:21;;;;;;;23.13;8.73;;;;;;;;;;5093422;28;20485;-50
2023/03/18 00:45:48;;;;;;;17.60;8.05;;;;;;;;;;5093405;28;20046;-49
2023/03/18 00:48:13;;;;;;;20.08;9.10;;;;;;;;;;5093515;28;20076;-49
2023/03/18 00:50:40;;;;;;;20.90;8.02;;;;;;;;;;5092240;28;20036;-49
2023/03/18 00:53:05;;;;;;;21.15;8.68;;;;;;;;;;5093000;28;20020;-49
2023/03/18 00:55:31;;;;;;;20.70;8.27;;;;;;;;;;5093406;28;20372;-51
2023/03/18 00:57:56;;;;;;;23.17;9.98;;;;;;;;;;5093270;28;20044;-49
2023/03/18 01:00:22;;;;;;;24.10;9.20;;;;;;;;;;5093386;28;20016;-50
2023/03/18 01:02:48;;;;;;;19.85;9.05;;;;;;;;;;5093869;28;20038;-52
2023/03/18 01:05:14;;;;;;;22.95;9.95;;;;;;;;;;5093416;28;20496;-50
2023/03/18 01:07:40;;;;;;;20.83;9.55;;;;;;;;;;5092160;28;20016;-51
2023/03/18 01:10:06;;;;;;;18.52;8.55;;;;;;;;;;5093520;28;20042;-49
2023/03/18 01:12:32;;;;;;;22.33;9.85;;;;;;;;;;5093231;28;20469;-49
2023/03/18 01:14:58;;;;;;;18.05;8.48;;;;;;;;;;5093381;28;20020;-50
2023/03/18 01:17:23;;;;;;;20.75;9.82;;;;;;;;;;5093571;28;20016;-49
2023/03/18 01:19:49;;;;;;;22.80;7.88;;;;;;;;;;5094136;28;20031;-50
2023/03/18 01:22:14;;;;;;;20.67;9.38;;;;;;;;;;5093567;28;20016;-50
2023/03/18 01:24:40;;;;;;;24.02;9.52;;;;;;;;;;5094283;28;20016;-53
2023/03/18 01:27:07;;;;;;;9.20;5.28;;;;;;;;;;5092688;28;20016;-52
2023/03/18 01:29:33;;;;;;;19.50;8.45;;;;;;;;;;5093501;28;20031;-49
2023/03/18 01:31:59;;;;;;;24.38;10.10;;;;;;;;;;5093191;28;20024;-49
2023/03/18 01:34:24;;;;;;;24.13;10.05;;;;;;;;;;5091617;28;20388;-54
2023/03/18 01:36:50;;;;;;;13.60;6.45;;;;;;;;;;5091986;28;20026;-50
2023/03/18 01:39:16;;;;;;;24.17;7.78;;;;;;;;;;5092942;28;20026;-49
2023/03/18 01:41:43;;;;;;;21.15;8.32;;;;;;;;;;5092810;28;20100;-50
2023/03/18 01:44:26;;;;;;;20.70;9.35;;;;;;;;;;5092936;28;20085;-49
2023/03/18 01:46:52;;;;;;;30.15;10.90;;;;;;;;;;5091735;28;20028;-50
2023/03/18 01:49:24;;;;;;;24.65;9.55;;;;;;;;;;5091286;28;20491;-49
2023/03/18 01:52:11;;;;;;;19.35;8.68;;;;;;;;;;5092810;28;20055;-55
2023/03/18 01:54:40;;;;;;;16.38;6.32;;;;;;;;;;5092613;28;20448;-49
2023/03/18 01:57:06;;;;;;;25.08;10.20;;;;;;;;;;5092678;28;20485;-49
2023/03/18 01:59:34;;;;;;;29.13;11.07;;;;;;;;;;5092424;28;20111;-49
2023/03/18 02:02:12;;;;;;;22.17;9.80;;;;;;;;;;5092461;28;20109;-51
2023/03/18 02:04:40;;;;;;;28.67;11.10;;;;;;;;;;5092337;28;20081;-51
2023/03/18 02:07:06;;;;;;;23.75;9.05;;;;;;;;;;5091192;28;20024;-51
2023/03/18 02:09:32;;;;;;;20.88;10.27;;;;;;;;;;5092712;28;20089;-50
2023/03/18 02:12:00;;;;;;;26.52;11.68;;;;;;;;;;5091234;28;20384;-50
2023/03/18 02:14:25;;;;;;;30.85;12.23;;;;;;;;;;5092436;28;20024;-51
2023/03/18 02:16:59;;;;;;;28.45;11.93;;;;;;;;;;5091240;28;20086;-50
2023/03/18 02:19:34;;;;;;;28.90;11.97;;;;;;;;;;5092426;28;20063;-50
2023/03/18 02:22:08;;;;;;;33.35;12.07;;;;;;;;;;5095913;28;20118;-50
2023/03/18 02:24:40;;;;;;;41.22;15.00;;;;;;;;;;5095284;28;20024;-54
2023/03/18 02:27:25;;;;;;;28.50;13.95;;;;;;;;;;5096462;28;20031;-50
2023/03/18 02:29:53;;;;;;;32.67;15.43;;;;;;;;;;5096209;28;20473;-50
2023/03/18 02:32:19;;;;;;;33.08;16.05;;;;;;;;;;5096162;28;20480;-50
2023/03/18 02:34:45;;;;;;;38.53;16.08;;;;;;;;;;5098070;28;20126;-51
2023/03/18 02:37:10;;;;;;;41.20;17.63;;;;;;;;;;5098526;28;20468;-50
2023/03/18 02:39:36;;;;;;;38.42;17.20;;;;;;;;;;5096568;28;20016;-50
2023/03/18 02:42:03;;;;;;;32.58;16.35;;;;;;;;;;5096334;28;20396;-51
2023/03/18 02:44:28;;;;;;;35.30;16.58;;;;;;;;;;5096185;28;20085;-50
2023/03/18 02:46:59;;;;;;;34.30;15.70;;;;;;;;;;5096275;28;20472;-51
2023/03/18 02:49:26;;;;;;;33.25;15.68;;;;;;;;;;5098429;28;20036;-49
2023/03/18 02:51:52;;;;;;;40.40;18.73;;;;;;;;;;5098840;28;20024;-50
2023/03/18 02:54:20;;;;;;;41.47;21.27;;;;;;;;;;5096916;28;20016;-64
2023/03/18 02:56:46;;;;;;;40.40;18.55;;;;;;;;;;5094795;28;20059;-51
2023/03/18 02:59:12;;;;;;;38.53;19.40;;;;;;;;;;5094898;28;20012;-50
2023/03/18 03:01:38;;;;;;;44.25;20.38;;;;;;;;;;5094719;28;20039;-49
2023/03/18 03:04:05;;;;;;;44.08;19.80;;;;;;;;;;5094749;28;20024;-49
2023/03/18 03:06:31;;;;;;;44.55;19.13;;;;;;;;;;5096886;28;20017;-49
2023/03/18 03:08:57;;;;;;;41.45;18.90;;;;;;;;;;5097846;28;20534;-55
2023/03/18 03:11:23;;;;;;;40.97;18.10;;;;;;;;;;5097027;28;20384;-49
2023/03/18 03:13:49;;;;;;;42.15;20.80;;;;;;;;;;5095403;28;20024;-50
2023/03/18 03:16:16;;;;;;;40.10;17.48;;;;;;;;;;5095945;28;20050;-48
2023/03/18 03:18:42;;;;;;;47.10;20.98;;;;;;;;;;5095112;28;20115;-48
2023/03/18 03:21:08;;;;;;;55.17;21.92;;;;;;;;;;5095106;28;20024;-51
2023/03/18 03:23:34;;;;;;;49.33;22.75;;;;;;;;;;5094432;28;20492;-47
2023/03/18 03:25:59;;;;;;;49.15;21.88;;;;;;;;;;5095697;28;20031;-47
2023/03/18 03:28:25;;;;;;;53.58;23.58;;;;;;;;;;5095511;28;20016;-47
2023/03/18 03:30:51;;;;;;;47.17;20.88;;;;;;;;;;5095271;28;20574;-48
2023/03/18 03:33:17;;;;;;;42.70;21.33;;;;;;;;;;5094515;28;20016;-49
2023/03/18 03:35:42;;;;;;;48.88;23.33;;;;;;;;;;5096266;28;20055;-48
2023/03/18 03:38:08;;;;;;;47.75;22.27;;;;;;;;;;5095808;28;20052;-49
2023/03/18 03:40:33;;;;;;;52.55;23.20;;;;;;;;;;5096950;28;20016;-49
2023/03/18 03:42:59;;;;;;;53.92;21.67;;;;;;;;;;5095503;28;20056;-50
2023/03/18 03:45:25;;;;;;;57.00;24.40;;;;;;;;;;5096620;28;20020;-49
2023/03/18 03:47:51;;;;;;;72.47;30.75;;;;;;;;;;5096703;28;20048;-58
2023/03/18 03:50:17;;;;;;;50.05;25.17;;;;;;;;;;5095357;28;20032;-49
2023/03/18 03:52:42;;;;;;;55.60;22.50;;;;;;;;;;5094821;28;20024;-51
2023/03/18 03:55:09;;;;;;;49.95;23.58;;;;;;;;;;5094347;28;20016;-48
2023/03/18 03:57:35;;;;;;;52.20;23.02;;;;;;;;;;5093241;28;20044;-49
2023/03/18 04:00:03;;;;;;;49.90;22.58;;;;;;;;;;5094892;28;20400;-48
2023/03/18 04:02:29;;;;;;;44.78;22.40;;;;;;;;;;5093502;28;20384;-48
2023/03/18 04:04:54;;;;;;;48.15;22.85;;;;;;;;;;5095172;28;20472;-49
2023/03/18 04:07:20;;;;;;;48.58;21.60;;;;;;;;;;5094645;28;20411;-50
2023/03/18 04:09:45;;;;;;;46.35;21.65;;;;;;;;;;5092970;28;20410;-48
2023/03/18 04:12:12;;;;;;;57.33;23.88;;;;;;;;;;5093307;28;20107;-49
2023/03/18 04:14:40;;;;;;;39.38;18.88;;;;;;;;;;5094509;28;20024;-49
2023/03/18 04:17:06;;;;;;;44.70;22.45;;;;;;;;;;5094089;28;20024;-49
2023/03/18 04:19:32;;;;;;;51.33;23.42;;;;;;;;;;5093194;28;20544;-48
2023/03/18 04:21:58;;;;;;;59.28;22.30;;;;;;;;;;5094386;28;20019;-49
2023/03/18 04:24:23;;;;;;;51.60;25.80;;;;;;;;;;5094112;28;20016;-49
2023/03/18 04:26:49;;;;;;;54.83;26.30;;;;;;;;;;5092966;28;20469;-49
2023/03/18 04:29:14;;;;;;;48.20;23.00;;;;;;;;;;5092603;28;20480;-49
2023/03/18 04:31:41;;;;;;;53.05;23.25;;;;;;;;;;5094634;28;20050;-49
2023/03/18 04:56:49;;;;;;;1.92;0.98;;;;;;;;;;5110035;27;20400;-50
2023/03/18 04:59:15;;;;;;;0.98;0.95;;;;;;;;;;5109992;28;20114;-51
2023/03/18 05:01:41;;;;;;;1.33;1.23;;;;;;;;;;5109844;28;20045;-51
2023/03/18 05:04:07;;;;;;;0.57;0.57;;;;;;;;;;5108611;28;20027;-51
2023/03/18 06:47:10;;;;;;;85.18;37.00;;;;;;;;;;5109781;27;20373;-50
2023/03/18 06:49:36;;;;;;;76.38;38.20;;;;;;;;;;5110491;28;20119;-50
2023/03/18 06:52:02;;;;;;;71.55;35.55;;;;;;;;;;5108776;28;20502;-50
2023/03/18 06:54:29;;;;;;;75.65;35.03;;;;;;;;;;5109786;28;20048;-51
2023/03/18 06:56:54;;;;;;;65.07;32.65;;;;;;;;;;5110502;28;20020;-50
2023/03/18 06:59:22;;;;;;;69.30;33.78;;;;;;;;;;5109910;28;20020;-50
2023/03/18 07:01:48;;;;;;;68.47;33.95;;;;;;;;;;5109689;28;20020;-51
2023/03/18 07:04:13;;;;;;;65.68;31.60;;;;;;;;;;5109549;28;20016;-50
2023/03/18 07:06:39;;;;;;;63.78;30.10;;;;;;;;;;5108304;28;20038;-50
2023/03/18 07:09:05;;;;;;;66.72;31.58;;;;;;;;;;5109699;28;20465;-52
2023/03/18 07:11:33;;;;;;;63.15;31.05;;;;;;;;;;5109371;28;20012;-51
2023/03/18 07:13:59;;;;;;;69.15;32.95;;;;;;;;;;5109778;28;20103;-51
2023/03/18 07:16:25;;;;;;;70.97;31.80;;;;;;;;;;5108820;28;20169;-49
2023/03/18 07:18:51;;;;;;;57.67;31.48;;;;;;;;;;5110432;28;20024;-50
2023/03/18 07:21:17;;;;;;;66.78;31.70;;;;;;;;;;5109563;28;20156;-50
2023/03/18 07:23:43;;;;;;;58.17;28.83;;;;;;;;;;5108749;28;20118;-51
2023/03/18 07:26:09;;;;;;;68.95;29.77;;;;;;;;;;5109482;28;20499;-50
2023/03/18 07:28:34;;;;;;;63.17;31.52;;;;;;;;;;5108503;28;20020;-51
2023/03/18 07:31:00;;;;;;;62.03;28.50;;;;;;;;;;5109283;28;20024;-49
2023/03/18 07:33:26;;;;;;;55.00;29.25;;;;;;;;;;5109122;28;20020;-49
2023/03/18 07:35:51;;;;;;;54.88;26.88;;;;;;;;;;5107874;28;20112;-50
2023/03/18 07:38:17;;;;;;;66.07;28.90;;;;;;;;;;5108784;28;20417;-52
2023/03/18 07:40:42;;;;;;;68.10;28.35;;;;;;;;;;5109446;28;20020;-51
2023/03/18 07:43:08;;;;;;;51.17;26.20;;;;;;;;;;5107236;28;20050;-50
2023/03/18 07:45:33;;;;;;;57.38;28.52;;;;;;;;;;5107141;28;20055;-49
2023/03/18 07:47:59;;;;;;;57.22;27.55;;;;;;;;;;5108703;28;20019;-51
2023/03/18 07:50:25;;;;;;;51.70;24.85;;;;;;;;;;5108636;28;20465;-50
2023/03/18 07:52:51;;;;;;;56.53;26.70;;;;;;;;;;5108268;28;20444;-49
2023/03/18 07:55:17;;;;;;;48.33;26.35;;;;;;;;;;5108441;28;20027;-50
2023/03/18 07:57:42;;;;;;;55.70;27.90;;;;;;;;;;5099434;28;20081;-50
2023/03/18 08:00:09;;;;;;;56.85;26.27;;;;;;;;;;5095726;28;20493;-50
2023/03/18 08:02:35;;;;;;;54.65;27.27;;;;;;;;;;5094022;28;20045;-49
2023/03/18 08:05:00;;;;;;;55.63;27.70;;;;;;;;;;5094595;28;20107;-49
2023/03/18 08:07:26;;;;;;;64.28;27.92;;;;;;;;;;5094795;28;20031;-50
2023/03/18 08:09:52;;;;;;;51.28;25.88;;;;;;;;;;5093490;28;20012;-50
2023/03/18 08:12:17;;;;;;;49.03;25.73;;;;;;;;;;5094839;28;20020;-50
2023/03/18 08:14:42;;;;;;;59.25;27.40;;;;;;;;;;5094915;28;20103;-49
2023/03/18 08:17:08;;;;;;;52.72;28.20;;;;;;;;;;5094413;28;20055;-50
2023/03/18 08:19:34;;;;;;;62.72;26.23;;;;;;;;;;5094629;28;20028;-52
2023/03/18 08:22:00;;;;;;;58.95;28.33;;;;;;;;;;5093529;28;20035;-50
2023/03/18 08:24:26;;;;;;;55.55;27.48;;;;;;;;;;5094684;28;20053;-51
2023/03/18 08:26:52;;;;;;;64.90;30.67;;;;;;;;;;5094356;28;20040;-50
2023/03/18 08:29:17;;;;;;;55.38;26.02;;;;;;;;;;5094597;28;20081;-50
2023/03/18 08:31:43;;;;;;;66.50;29.35;;;;;;;;;;5094371;28;20110;-51
2023/03/18 08:34:09;;;;;;;54.13;28.02;;;;;;;;;;5093200;28;20414;-51
2023/03/18 08:36:35;;;;;;;50.40;27.13;;;;;;;;;;5094321;28;20559;-50
2023/03/18 08:39:01;;;;;;;48.83;26.58;;;;;;;;;;5093989;28;20046;-50
2023/03/18 08:41:27;;;;;;;52.00;27.38;;;;;;;;;;5092763;28;20081;-50
2023/03/18 08:43:54;;;;;;;63.42;28.13;;;;;;;;;;5094021;28;20023;-50
2023/03/18 08:46:19;;;;;;;72.75;30.70;;;;;;;;;;5092243;28;20440;-50
2023/03/18 08:48:45;;;;;;;65.18;31.98;;;;;;;;;;5092795;28;20016;-51
2023/03/18 08:51:11;;;;;;;64.18;29.52;;;;;;;;;;5093458;28;20106;-48
2023/03/18 08:53:36;;;;;;;54.60;28.00;;;;;;;;;;5093891;28;20024;-51
2023/03/18 08:56:04;;;;;;;56.35;29.65;;;;;;;;;;5094284;28;20102;-51
2023/03/18 08:58:30;;;;;;;60.28;25.60;;;;;;;;;;5092512;28;20020;-50
2023/03/18 09:03:14;;;;;;;55.22;30.05;;;;;;;;;;5109471;27;20394;-48
2023/03/18 09:05:40;;;;;;;60.25;30.27;;;;;;;;;;5110267;28;20114;-50
2023/03/18 09:08:05;;;;;;;58.55;27.98;;;;;;;;;;5110392;28;20407;-51
2023/03/18 09:10:32;;;;;;;60.65;28.23;;;;;;;;;;5109339;28;20012;-48
2023/03/18 09:12:58;;;;;;;58.30;27.80;;;;;;;;;;5110248;28;20016;-52
2023/03/18 09:15:23;;;;;;;55.10;23.55;;;;;;;;;;5110284;28;20495;-49
2023/03/18 09:17:49;;;;;;;45.90;19.98;;;;;;;;;;5109391;28;20023;-49
2023/03/18 09:27:44;;;;;;;48.83;25.73;;;;;;;;;;5084679;28;20386;-51
2023/03/18 09:30:10;;;;;;;56.30;28.25;;;;;;;;;;5069295;28;20039;-50
2023/03/18 09:32:36;;;;;;;45.45;24.55;;;;;;;;;;5068998;28;20025;-51
2023/03/18 11:23:54;;;;;;;57.38;36.25;;;;;;;;;;5109649;27;20741;-51
2023/03/18 11:26:28;;;;;;;50.35;34.20;;;;;;;;;;5108373;28;20415;-51
2023/03/18 11:28:58;;;;;;;64.13;36.25;;;;;;;;;;5108601;28;20026;-49
2023/03/18 11:31:24;;;;;;;55.58;33.75;;;;;;;;;;5109429;28;20024;-50
2023/03/18 11:33:49;;;;;;;62.25;35.50;;;;;;;;;;5109836;28;20099;-51
2023/03/18 11:36:19;;;;;;;72.32;40.83;;;;;;;;;;5110130;28;20129;-50
2023/03/18 11:38:54;;;;;;;66.38;34.60;;;;;;;;;;5109942;28;20099;-50
2023/03/18 11:41:24;;;;;;;53.60;29.77;;;;;;;;;;5109628;28;20073;-50
2023/03/18 11:44:00;;;;;;;61.60;28.73;;;;;;;;;;5111389;28;20034;-54
2023/03/18 11:46:28;;;;;;;67.20;34.75;;;;;;;;;;5111797;28;20055;-52
2023/03/18 11:48:54;;;;;;;60.85;31.92;;;;;;;;;;5110212;28;20023;-49
2023/03/18 11:51:32;;;;;;;62.90;31.75;;;;;;;;;;5108311;28;20384;-49
2023/03/18 11:54:18;;;;;;;67.55;29.92;;;;;;;;;;5108465;28;20049;-50
2023/03/18 11:56:44;;;;;;;59.17;29.50;;;;;;;;;;5108789;28;20377;-50
2023/03/18 11:59:12;;;;;;;66.00;32.53;;;;;;;;;;5109666;28;20016;-50
2023/03/18 12:01:38;;;;;;;54.53;28.42;;;;;;;;;;5110033;28;20110;-48
2023/03/18 12:04:12;;;;;;;55.25;29.92;;;;;;;;;;5110152;28;20044;-50
2023/03/18 12:07:04;;;;;;;61.92;31.55;;;;;;;;;;5108580;28;20053;-50
2023/03/18 12:09:39;;;;;;;54.40;25.90;;;;;;;;;;5078056;28;20575;-52
2023/03/18 12:12:05;;;;;;;;;;;;;;;;;;5109487;28;20028;-51
2023/03/18 12:14:43;;;;;;;60.97;29.00;;;;;;;;;;5109142;28;19904;-51
2023/03/18 12:17:20;;;;;;;54.28;26.08;;;;;;;;;;5110409;28;20024;-50
2023/03/18 12:20:09;;;;;;;61.83;32.03;;;;;;;;;;5110797;28;20035;-51
2023/03/18 12:22:40;;;;;;;69.20;24.88;;;;;;;;;;5108314;28;20056;-51
2023/03/18 12:25:09;;;;;;;57.60;25.35;;;;;;;;;;5108497;28;20506;-55
2023/03/18 12:27:37;;;;;;;57.20;23.45;;;;;;;;;;5109717;28;20020;-51
2023/03/18 12:30:13;;;;;;;51.50;25.05;;;;;;;;;;5108578;28;20056;-50
2023/03/18 12:32:57;;;;;;;58.97;29.42;;;;;;;;;;5107342;28;20027;-49
2023/03/18 12:35:46;;;;;;;56.05;29.90;;;;;;;;;;5094508;28;20070;-52
2023/03/18 12:38:24;;;;;;;55.83;27.42;;;;;;;;;;5083514;28;20062;-50
2023/03/18 12:41:20;;;;;;;61.97;32.22;;;;;;;;;;5096228;28;20126;-50
2023/03/18 12:43:59;;;;;;;56.92;30.90;;;;;;;;;;5072854;28;20094;-50
2023/03/18 12:46:30;;;;;;;64.10;31.55;;;;;;;;;;5095442;28;20024;-50
2023/03/18 12:49:09;;;;;;;62.20;28.85;;;;;;;;;;5095319;28;20023;-50
2023/03/18 12:51:46;;;;;;;62.85;33.67;;;;;;;;;;5096085;28;20103;-50
2023/03/18 12:54:17;;;;;;;64.93;34.65;;;;;;;;;;5096344;28;20023;-50
2023/03/18 12:56:44;;;;;;;55.00;30.02;;;;;;;;;;5096064;28;20445;-51
2023/03/18 12:59:28;;;;;;;63.65;31.55;;;;;;;;;;5095792;28;20085;-49
2023/03/18 13:02:05;;;;;;;60.58;32.03;;;;;;;;;;5095540;28;20060;-53
2023/03/18 13:04:32;;;;;;;58.42;29.85;;;;;;;;;;5094166;28;20067;-51
2023/03/18 13:07:02;;;;;;;68.35;34.47;;;;;;;;;;5097085;28;20027;-54
2023/03/18 13:09:31;;;;;;;67.80;34.88;;;;;;;;;;5095506;28;20392;-50
2023/03/18 13:12:18;;;;;;;63.67;32.75;;;;;;;;;;5097712;28;20032;-51
2023/03/18 13:15:01;;;;;;;57.47;30.13;;;;;;;;;;5094729;28;20085;-50
2023/03/18 13:17:38;;;;;;;64.70;32.05;;;;;;;;;;5093147;28;20032;-50
2023/03/18 13:20:19;;;;;;;60.58;31.05;;;;;;;;;;5094771;28;20020;-61
2023/03/18 13:22:55;;;;;;;65.25;25.48;;;;;;;;;;5094423;28;20273;-58
2023/03/18 13:25:35;;;;;;;59.47;30.17;;;;;;;;;;5095082;28;20091;-50
2023/03/18 13:28:01;;;;;;;59.50;27.33;;;;;;;;;;5093363;28;20020;-50
2023/03/18 13:30:31;;;;;;;58.15;29.67;;;;;;;;;;5094364;28;20024;-51
2023/03/18 13:33:16;;;;;;;59.22;32.35;;;;;;;;;;5094551;28;20020;-52
2023/03/18 13:36:00;;;;;;;61.95;32.50;;;;;;;;;;5094992;28;20077;-51
2023/03/18 13:38:29;;;;;;;68.70;35.20;;;;;;;;;;5093370;28;20028;-51
2023/03/18 13:40:55;;;;;;;64.35;32.97;;;;;;;;;;5094316;28;20091;-52
2023/03/18 13:43:21;;;;;;;64.80;32.08;;;;;;;;;;5092869;28;20119;-51
2023/03/18 13:45:49;;;;;;;67.80;31.60;;;;;;;;;;5092173;28;20020;-50
2023/03/18 13:48:18;;;;;;;62.08;31.45;;;;;;;;;;5093090;28;20020;-51
2023/03/18 13:50:44;;;;;;;67.10;33.22;;;;;;;;;;5094194;28;20017;-50
2023/03/18 13:53:28;;;;;;;66.82;34.50;;;;;;;;;;5093983;28;20103;-50
2023/03/18 13:55:59;;;;;;;66.72;34.25;;;;;;;;;;5094089;28;20012;-50
2023/03/18 13:58:26;;;;;;;79.43;36.95;;;;;;;;;;5092873;28;20108;-50
2023/03/18 14:00:56;;;;;;;66.97;33.80;;;;;;;;;;5092986;28;20023;-50
2023/03/18 14:03:40;;;;;;;66.03;32.33;;;;;;;;;;5093422;28;20571;-51
2023/03/18 14:06:12;;;;;;;60.80;29.15;;;;;;;;;;5092784;28;20034;-51
2023/03/18 14:08:37;;;;;;;65.68;34.38;;;;;;;;;;5094694;28;20075;-52
2023/03/18 14:11:27;;;;;;;63.47;33.35;;;;;;;;;;5094129;28;20465;-50
2023/03/18 14:14:00;;;;;;;78.88;34.58;;;;;;;;;;5094141;28;20024;-50
2023/03/18 14:16:36;;;;;;;75.30;36.10;;;;;;;;;;5092943;28;20100;-49
2023/03/18 14:19:02;;;;;;;73.32;35.72;;;;;;;;;;5094442;28;20104;-50
2023/03/18 14:21:29;;;;;;;73.05;34.83;;;;;;;;;;5093967;28;20074;-51
2023/03/18 14:24:08;;;;;;;78.95;37.15;;;;;;;;;;5094475;28;20452;-49
2023/03/18 14:26:33;;;;;;;61.63;30.52;;;;;;;;;;5094086;28;20031;-49
2023/03/18 14:29:05;;;;;;;61.42;33.00;;;;;;;;;;5092351;28;20365;-50
2023/03/18 14:31:33;;;;;;;74.30;34.20;;;;;;;;;;5093596;28;20020;-50
2023/03/18 14:34:23;;;;;;;61.45;31.23;;;;;;;;;;5092404;28;20510;-55
2023/03/18 14:36:51;;;;;;;66.82;33.92;;;;;;;;;;5082120;28;20028;-51
2023/03/18 14:39:26;;;;;;;64.80;30.88;;;;;;;;;;5094141;28;20108;-50
2023/03/18 14:41:55;;;;;;;70.03;29.88;;;;;;;;;;5093861;28;20111;-52
2023/03/18 14:44:23;;;;;;;74.15;30.85;;;;;;;;;;5093905;28;20016;-52
2023/03/18 14:46:50;;;;;;;64.22;32.42;;;;;;;;;;5092601;28;20388;-50
2023/03/18 14:49:33;;;;;;;62.20;29.40;;;;;;;;;;5092181;28;20039;-50
2023/03/18 14:51:59;;;;;;;55.20;28.35;;;;;;;;;;5093841;28;20023;-51
2023/03/18 14:54:26;;;;;;;58.15;29.58;;;;;;;;;;5092295;28;20020;-50
2023/03/18 14:56:53;;;;;;;56.75;28.50;;;;;;;;;;5093527;28;20023;-50
2023/03/18 14:59:22;;;;;;;61.78;30.05;;;;;;;;;;5092731;28;20465;-49
2023/03/18 15:01:52;;;;;;;68.60;30.55;;;;;;;;;;5092677;28;20028;-49
2023/03/18 15:04:25;;;;;;;59.03;29.90;;;;;;;;;;5093664;28;20084;-50
2023/03/18 15:06:51;;;;;;;54.67;30.20;;;;;;;;;;5095587;28;20028;-52
2023/03/18 15:09:26;;;;;;;54.47;26.10;;;;;;;;;;5095039;28;20028;-52
2023/03/18 15:11:51;;;;;;;62.83;25.80;;;;;;;;;;5093963;28;20020;-50
2023/03/18 15:14:28;;;;;;;52.05;24.50;;;;;;;;;;5092879;28;20039;-53
2023/03/18 15:17:02;;;;;;;57.58;26.63;;;;;;;;;;5094828;28;20112;-57
2023/03/18 15:19:28;;;;;;;58.15;28.00;;;;;;;;;;5092703;28;20016;-50
2023/03/18 15:21:55;;;;;;;54.10;28.92;;;;;;;;;;5092017;28;20542;-50
2023/03/18 15:24:25;;;;;;;64.18;31.27;;;;;;;;;;5093274;28;20028;-50
2023/03/18 15:27:09;;;;;;;59.30;30.80;;;;;;;;;;5091978;28;20110;-49
2023/03/18 15:29:36;;;;;;;57.65;32.20;;;;;;;;;;5092293;28;20024;-51
2023/03/18 15:32:13;;;;;;;57.97;30.98;;;;;;;;;;5092852;28;20020;-50
2023/03/18 15:34:41;;;;;;;63.03;31.88;;;;;;;;;;5092865;28;20103;-50
2023/03/18 15:37:25;;;;;;;66.35;32.35;;;;;;;;;;5092987;28;20452;-50
2023/03/18 15:39:54;;;;;;;64.53;34.10;;;;;;;;;;5093006;28;20020;-50
2023/03/18 15:42:21;;;;;;;63.13;32.47;;;;;;;;;;5092769;28;20280;-49
2023/03/18 15:44:58;;;;;;;67.03;33.78;;;;;;;;;;5092825;28;20020;-50
2023/03/18 15:47:30;;;;;;;62.40;34.42;;;;;;;;;;5092758;28;20069;-51
2023/03/18 15:50:14;;;;;;;59.35;32.97;;;;;;;;;;5092751;28;20027;-51
2023/03/18 15:52:41;;;;;;;60.13;31.75;;;;;;;;;;5091305;28;20020;-50
2023/03/18 15:55:26;;;;;;;59.47;29.63;;;;;;;;;;5092455;28;20035;-49
2023/03/18 15:57:52;;;;;;;61.03;31.35;;;;;;;;;;5091258;28;20465;-50
2023/03/18 16:00:19;;;;;;;61.85;33.63;;;;;;;;;;5092423;28;20030;-51
2023/03/18 16:02:45;;;;;;;63.30;32.95;;;;;;;;;;5091373;28;20058;-50
2023/03/18 16:05:18;;;;;;;68.60;32.95;;;;;;;;;;5092166;28;20024;-50
2023/03/18 16:07:44;;;;;;;69.57;37.30;;;;;;;;;;5092791;28;20052;-50
2023/03/18 16:10:10;;;;;;;68.65;33.85;;;;;;;;;;5096321;28;20024;-48
2023/03/18 16:12:38;;;;;;;61.45;31.23;;;;;;;;;;5096206;28;20059;-50
2023/03/18 16:15:04;;;;;;;57.88;31.35;;;;;;;;;;5096095;28;20022;-54
2023/03/18 16:17:32;;;;;;;64.63;33.67;;;;;;;;;;5098289;28;20425;-49
2023/03/18 16:19:58;;;;;;;68.40;34.20;;;;;;;;;;5096949;28;20326;-49
2023/03/18 16:22:23;;;;;;;66.85;33.55;;;;;;;;;;5095856;28;20501;-50
2023/03/18 16:24:49;;;;;;;62.95;35.45;;;;;;;;;;5096344;28;20019;-50
2023/03/18 16:27:21;;;;;;;68.40;33.35;;;;;;;;;;5096149;28;20051;-50
2023/03/18 16:29:47;;;;;;;65.82;35.00;;;;;;;;;;5095729;28;20470;-50
2023/03/18 16:32:13;;;;;;;63.20;34.00;;;;;;;;;;5096019;28;20107;-50
2023/03/18 16:34:38;;;;;;;65.78;33.22;;;;;;;;;;5095970;28;20016;-50
2023/03/18 16:37:05;;;;;;;69.10;35.72;;;;;;;;;;5095889;28;20415;-50
2023/03/18 16:39:32;;;;;;;65.45;35.13;;;;;;;;;;5095646;28;20461;-51
2023/03/18 16:41:59;;;;;;;57.35;33.10;;;;;;;;;;5095221;28;20028;-52
2023/03/18 16:44:25;;;;;;;79.63;36.78;;;;;;;;;;5095640;28;20024;-50
2023/03/18 16:46:55;;;;;;;66.63;32.70;;;;;;;;;;5095674;28;20035;-50
2023/03/18 16:49:29;;;;;;;68.97;35.25;;;;;;;;;;5094959;28;20027;-51
2023/03/18 16:51:55;;;;;;;65.22;33.95;;;;;;;;;;5095709;28;20016;-49
2023/03/18 16:54:22;;;;;;;67.90;33.08;;;;;;;;;;5095647;28;20051;-49
2023/03/18 16:56:51;;;;;;;60.88;32.92;;;;;;;;;;5094472;28;20039;-50
2023/03/18 16:59:17;;;;;;;64.53;32.55;;;;;;;;;;5095576;28;20342;-51
2023/03/18 17:01:44;;;;;;;65.25;35.03;;;;;;;;;;5094800;28;20024;-49
2023/03/18 17:04:30;;;;;;;66.00;33.20;;;;;;;;;;5095435;28;20529;-51
2023/03/18 17:06:56;;;;;;;69.68;36.50;;;;;;;;;;5095129;28;20032;-49
2023/03/18 17:09:22;;;;;;;71.80;35.53;;;;;;;;;;5095406;28;20469;-50
2023/03/18 17:11:49;;;;;;;67.13;35.47;;;;;;;;;;5095643;28;20046;-50
2023/03/18 17:14:34;;;;;;;73.75;36.72;;;;;;;;;;5095463;28;20020;-50
2023/03/18 17:17:01;;;;;;;80.05;36.53;;;;;;;;;;5094054;28;20027;-51
2023/03/18 17:19:27;;;;;;;79.57;35.17;;;;;;;;;;5093831;28;20024;-53
2023/03/18 17:21:52;;;;;;;72.28;35.13;;;;;;;;;;5092977;28;20412;-51
2023/03/18 17:24:18;;;;;;;67.68;34.83;;;;;;;;;;5094778;28;20016;-52
2023/03/18 17:26:46;;;;;;;72.40;36.63;;;;;;;;;;5093684;28;20066;-50
2023/03/18 17:29:26;;;;;;;75.88;36.45;;;;;;;;;;5094676;28;20023;-51
2023/03/18 17:31:52;;;;;;;72.40;36.53;;;;;;;;;;5094677;28;20069;-51
2023/03/18 17:34:18;;;;;;;68.05;35.75;;;;;;;;;;5094030;28;20073;-52
2023/03/18 17:36:43;;;;;;;78.18;36.53;;;;;;;;;;5094865;28;20016;-50
2023/03/18 17:39:09;;;;;;;76.00;38.50;;;;;;;;;;5094622;28;20017;-54
2023/03/18 17:41:34;;;;;;;63.85;35.03;;;;;;;;;;5093487;28;20031;-50
2023/03/18 17:44:00;;;;;;;77.85;38.85;;;;;;;;;;5095061;28;20024;-49
2023/03/18 17:46:25;;;;;;;83.18;37.40;;;;;;;;;;5096108;28;20031;-60
2023/03/18 17:48:51;;;;;;;70.45;36.83;;;;;;;;;;5096438;28;20048;-51
2023/03/18 17:51:18;;;;;;;72.63;37.22;;;;;;;;;;5095813;28;20035;-53
2023/03/18 17:53:48;;;;;;;68.50;35.55;;;;;;;;;;5096243;28;20038;-51
2023/03/18 17:56:15;;;;;;;78.38;38.75;;;;;;;;;;5094154;28;20042;-50
2023/03/18 17:58:44;;;;;;;81.80;38.90;;;;;;;;;;5094456;28;20016;-52
2023/03/18 18:01:15;;;;;;;78.40;37.45;;;;;;;;;;5094337;28;20507;-50
2023/03/18 18:03:42;;;;;;;72.60;35.00;;;;;;;;;;5093243;28;20111;-52
2023/03/18 18:06:14;;;;;;;76.40;36.78;;;;;;;;;;5092800;28;20016;-51
2023/03/18 18:08:39;;;;;;;69.97;34.63;;;;;;;;;;5092952;28;20020;-49
2023/03/18 18:11:25;;;;;;;78.13;35.85;;;;;;;;;;5092949;28;20026;-53
2023/03/18 18:13:52;;;;;;;86.43;41.78;;;;;;;;;;5096922;28;20024;-51
2023/03/18 18:16:18;;;;;;;78.47;36.25;;;;;;;;;;5096589;28;20031;-51
2023/03/18 18:18:44;;;;;;;82.47;37.88;;;;;;;;;;5096123;28;20023;-50
2023/03/18 18:21:15;;;;;;;87.70;36.58;;;;;;;;;;5092469;28;20392;-50
2023/03/18 18:23:47;;;;;;;88.75;40.50;;;;;;;;;;5093979;28;20088;-51
2023/03/18 18:26:20;;;;;;;92.50;39.70;;;;;;;;;;5091796;28;20016;-51
2023/03/18 18:28:47;;;;;;;90.53;39.22;;;;;;;;;;5093778;28;20112;-50
2023/03/18 18:31:16;;;;;;;96.68;41.53;;;;;;;;;;5092047;28;20012;-51